Time;durP1;ratioP1;P1;durP2;ratioP2;P2;SDS_P1;SDS_P2;PMS_P1;PMS_P2;Temp;Humidity;BMP_temperature;BMP_pressure;BME280_temperature;BME280_humidity;BME280_pressure;Samples;Min_cycle;Max_cycle;Signal;HPM_P1;HPM_P2
2022/08/12 00:44:44;;;;;;;4.30;2.80;;;;;;;20.36;54.94;100746.42;106037;1274;112730;-66
2022/08/12 00:47:20;;;;;;;4.60;2.90;;;;;;;20.37;54.97;100743.70;105971;1275;140309;-66
2022/08/12 00:49:55;;;;;;;;;;;;;;;20.37;54.91;100749.69;106013;1274;108538;-66
2022/08/12 00:52:27;;;;;;;3.30;2.50;;;;;;;20.35;55.10;100749.48;105871;1276;125408;-66
2022/08/12 00:55:01;;;;;;;7.80;3.10;;;;;;;20.34;54.87;100746.95;106060;1275;97846;-66
2022/08/12 00:57:36;;;;;;;6.70;3.30;;;;;;;20.32;54.90;100744.05;105981;1275;137909;-66
2022/08/12 01:00:12;;;;;;;8.30;3.20;;;;;;;20.29;54.67;100738.95;107526;1274;107214;-66
2022/08/12 01:02:50;;;;;;;5.70;3.00;;;;;;;20.26;54.81;100743.38;107500;1276;108106;-67
2022/08/12 01:11:31;;;;;;;5.60;3.00;;;;;;;20.16;54.79;100742.08;105985;1274;137837;-66
2022/08/12 01:14:04;;;;;;;4.80;2.70;;;;;;;20.13;54.82;100742.06;107429;1276;109277;-66
2022/08/12 01:16:37;;;;;;;6.30;3.00;;;;;;;20.11;54.61;100737.46;106630;1274;137942;-66
2022/08/12 01:19:11;;;;;;;5.90;2.70;;;;;;;20.09;54.61;100738.10;106002;1277;97835;-66
2022/08/12 01:22:10;;;;;;;3.60;2.50;;;;;;;20.07;54.82;100735.90;107410;1276;137728;-65
2022/08/12 01:24:56;;;;;;;8.80;2.90;;;;;;;20.05;54.82;100738.52;107465;1274;114163;-66
2022/08/12 01:27:32;;;;;;;6.50;2.90;;;;;;;20.04;54.99;100741.30;106065;1274;137990;-66
2022/08/12 01:30:09;;;;;;;8.10;3.00;;;;;;;20.02;55.02;100741.23;106355;1276;108994;-67
2022/08/12 01:32:40;;;;;;;;;;;;;;;20.01;55.02;100741.10;107047;1277;97851;-66
2022/08/12 01:35:16;;;;;;;7.40;2.90;;;;;;;19.99;55.15;100741.77;105898;1276;124598;-67
2022/08/12 01:37:56;;;;;;;4.60;2.70;;;;;;;19.96;55.22;100740.02;106406;1277;112502;-66
2022/08/12 01:40:31;;;;;;;6.60;3.10;;;;;;;19.94;55.07;100739.61;106593;1274;138029;-67
2022/08/12 01:43:10;;;;;;;5.90;3.10;;;;;;;19.91;55.25;100736.92;107501;1276;108966;-67
2022/08/12 01:45:52;;;;;;;4.40;2.70;;;;;;;19.91;55.37;100736.94;107372;1275;138884;-65
2022/08/12 01:48:39;;;;;;;5.90;2.90;;;;;;;19.90;55.43;100733.30;107527;1274;96589;-66
2022/08/12 01:51:27;;;;;;;6.00;2.90;;;;;;;19.90;55.32;100732.42;107508;1274;112284;-66
2022/08/12 01:54:21;;;;;;;3.40;2.50;;;;;;;19.90;55.27;100739.66;107070;1274;108963;-66
2022/08/12 01:57:02;;;;;;;5.30;2.40;;;;;;;19.88;55.17;100733.94;106082;1275;108742;-66
2022/08/12 01:59:49;;;;;;;2.80;2.30;;;;;;;19.86;55.30;100715.17;105972;1275;137956;-66
2022/08/12 02:02:32;;;;;;;4.40;2.20;;;;;;;19.85;55.16;100720.19;105983;1275;97896;-66
2022/08/12 02:11:28;;;;;;;6.00;2.70;;;;;;;19.76;55.34;100707.95;107366;1274;138004;-67
2022/08/12 02:14:36;;;;;;;5.40;2.50;;;;;;;19.73;55.52;100711.80;106975;1275;97858;-67
2022/08/12 02:17:24;;;;;;;5.30;2.60;;;;;;;19.74;55.64;100706.99;105926;1276;138888;-67
2022/08/12 02:20:32;;;;;;;6.90;2.70;;;;;;;19.74;55.73;100701.67;106005;1276;112643;-67
2022/08/12 02:23:26;;;;;;;6.10;2.50;;;;;;;19.74;55.92;100701.48;105871;1276;138542;-67
2022/08/12 02:26:04;;;;;;;6.10;2.90;;;;;;;19.75;55.92;100709.39;106241;1276;107635;-66
2022/08/12 02:28:38;;;;;;;7.40;2.80;;;;;;;19.75;55.82;100709.73;105950;1275;138659;-67
2022/08/12 02:31:13;;;;;;;7.50;2.40;;;;;;;19.74;55.82;100699.93;106028;1275;98069;-66
2022/08/12 02:33:47;;;;;;;4.10;2.40;;;;;;;19.76;55.77;100696.48;105952;1274;138768;-67
2022/08/12 02:36:19;;;;;;;5.50;2.60;;;;;;;19.77;55.78;100690.77;107485;1275;110401;-65
2022/08/12 02:38:53;;;;;;;6.20;2.70;;;;;;;19.78;55.69;100681.16;107518;1274;108679;-66
2022/08/12 02:41:28;;;;;;;6.80;3.00;;;;;;;19.79;55.60;100687.80;107425;1274;141543;-65
2022/08/12 02:44:08;;;;;;;8.00;2.90;;;;;;;19.79;55.70;100692.90;106872;1274;96258;-66
2022/08/12 02:46:42;;;;;;;6.20;3.00;;;;;;;19.81;55.67;100693.11;105970;1274;139531;-66
2022/08/12 02:49:19;;;;;;;7.30;2.90;;;;;;;19.82;55.81;100695.52;107248;1276;109057;-65
2022/08/12 02:51:53;;;;;;;4.10;2.50;;;;;;;19.82;55.73;100701.87;105999;1275;139070;-65
2022/08/12 02:54:26;;;;;;;5.20;3.00;;;;;;;19.83;55.58;100702.00;107510;1274;96030;-66
2022/08/12 02:56:59;;;;;;;6.70;3.20;;;;;;;19.84;55.56;100702.07;107511;1274;96468;-66
2022/08/12 02:59:34;;;;;;;5.70;2.90;;;;;;;19.83;55.58;100700.23;107400;1274;139675;-65
2022/08/12 03:02:14;;;;;;;6.30;2.90;;;;;;;19.82;55.74;100699.04;106494;1274;109246;-65
2022/08/12 03:04:53;;;;;;;8.40;2.80;;;;;;;19.82;55.87;100706.27;105937;1275;138580;-66
2022/08/12 03:07:36;;;;;;;8.30;2.60;;;;;;;19.84;55.81;100695.58;106656;1275;97967;-66
2022/08/12 03:10:32;;;;;;;8.50;3.40;;;;;;;19.86;56.23;100689.10;105903;1274;138392;-66
2022/08/12 03:13:12;;;;;;;13.30;3.00;;;;;;;19.82;56.60;100689.91;105993;1275;111645;-66
2022/08/12 03:15:45;;;;;;;7.10;2.90;;;;;;;19.79;56.89;100687.94;105908;1274;140007;-66
2022/08/12 03:18:23;;;;;;;6.20;2.90;;;;;;;19.76;57.22;100685.89;107210;1275;110277;-65
2022/08/12 03:21:01;;;;;;;4.90;2.70;;;;;;;19.70;57.33;100698.07;106139;1274;97849;-66
2022/08/12 03:23:33;;;;;;;8.10;3.10;;;;;;;19.66;57.65;100707.31;105885;1274;139952;-66
2022/08/12 03:26:06;;;;;;;5.70;2.90;;;;;;;19.63;57.93;100710.14;105972;1276;112378;-66
2022/08/12 03:28:50;;;;;;;6.10;2.90;;;;;;;19.61;58.09;100712.56;107367;1276;139206;-67
2022/08/12 03:31:27;;;;;;;8.80;3.20;;;;;;;19.59;58.13;100709.02;107542;1274;109542;-67
2022/08/12 03:34:05;;;;;;;8.00;3.30;;;;;;;19.57;58.02;100711.59;107349;1276;139426;-67
2022/08/12 03:36:41;;;;;;;6.60;2.80;;;;;;;19.57;58.15;100712.11;107482;1274;95961;-67
2022/08/12 03:39:23;;;;;;;10.20;4.00;;;;;;;19.53;58.18;100704.02;107522;1274;111548;-66
2022/08/12 03:42:17;;;;;;;7.30;3.10;;;;;;;19.48;58.23;100708.05;107494;1276;109048;-67
2022/08/12 04:02:16;;;;;;;5.90;2.70;;;;;;;19.48;59.07;100743.34;106023;1276;97864;-67
2022/08/12 04:04:48;;;;;;;11.10;4.00;;;;;;;19.48;58.86;100741.55;107420;1274;138333;-66
2022/08/12 04:07:20;;;;;;;10.50;3.00;;;;;;;19.49;59.12;100745.71;107417;1276;112291;-66
2022/08/12 04:09:54;;;;;;;9.20;3.30;;;;;;;19.50;59.22;100746.73;107408;1274;138840;-66
2022/08/12 04:15:31;;;;;;;4.10;2.50;;;;;;;19.50;59.04;100737.72;106965;1279;139441;-66
2022/08/12 04:18:04;;;;;;;7.60;2.50;;;;;;;19.50;59.05;100739.88;107111;1279;96351;-66
2022/08/12 04:20:41;;;;;;;6.10;2.70;;;;;;;19.50;59.19;100742.33;107079;1279;112541;-66
2022/08/12 04:23:14;;;;;;;7.50;3.20;;;;;;;19.52;59.28;100743.40;107027;1279;138673;-66
2022/08/12 04:25:47;;;;;;;8.40;2.80;;;;;;;19.53;59.35;100746.38;107086;1279;109041;-66
2022/08/12 04:28:27;;;;;;;8.40;3.40;;;;;;;19.53;59.49;100751.81;106992;1279;139822;-66
2022/08/12 04:31:00;;;;;;;7.10;3.30;;;;;;;19.56;59.33;100751.31;106064;1279;97999;-65
2022/08/12 04:33:33;;;;;;;11.40;3.30;;;;;;;19.59;59.29;100750.27;105635;1279;138865;-66
2022/08/12 04:36:06;;;;;;;4.30;2.70;;;;;;;19.62;59.21;100746.04;105771;1279;108977;-66
2022/08/12 04:38:39;;;;;;;4.90;2.70;;;;;;;19.65;59.26;100748.30;105778;1279;108765;-66
2022/08/12 04:41:12;;;;;;;10.60;3.00;;;;;;;19.68;58.99;100747.74;105689;1279;138584;-66
2022/08/12 04:43:44;;;;;;;8.60;3.70;;;;;;;19.72;58.98;100746.27;107018;1279;97973;-66
2022/08/12 04:46:33;;;;;;;6.90;3.50;;;;;;;19.77;58.96;100745.09;106857;1279;139583;-67
2022/08/12 04:49:06;;;;;;;3.40;2.60;;;;;;;19.84;58.80;100749.19;105838;1279;108150;-64
2022/08/12 04:51:40;;;;;;;7.40;2.80;;;;;;;19.95;58.58;100747.15;105812;1277;139305;-65
2022/08/12 04:54:12;;;;;;;6.40;2.70;;;;;;;20.04;58.57;100749.37;106049;1274;97956;-65
2022/08/12 04:56:47;;;;;;;9.40;2.70;;;;;;;20.12;58.38;100746.03;106104;1274;97862;-66
2022/08/12 04:59:36;;;;;;;3.50;2.60;;;;;;;20.19;58.26;100742.73;105811;1276;139460;-66
2022/08/12 05:02:20;;;;;;;5.80;2.90;;;;;;;20.23;58.17;100742.16;105947;1274;108826;-66
2022/08/12 05:04:56;;;;;;;6.20;3.00;;;;;;;20.26;58.05;100743.53;106027;1274;138732;-67
2022/08/12 05:07:32;;;;;;;6.80;2.80;;;;;;;20.33;58.06;100742.21;105988;1276;97869;-66
2022/08/12 05:10:16;;;;;;;9.40;3.00;;;;;;;20.39;57.88;100739.35;105872;1275;138569;-66
2022/08/12 05:12:54;;;;;;;4.60;2.80;;;;;;;20.49;57.67;100738.39;105955;1274;112530;-66
2022/08/12 05:15:27;;;;;;;5.60;3.10;;;;;;;20.85;58.02;100740.71;107368;1274;139223;-66
2022/08/12 05:18:01;;;;;;;7.20;2.80;;;;;;;21.23;57.66;100740.30;107118;1274;108334;-66
2022/08/12 05:20:50;;;;;;;6.00;2.60;;;;;;;21.50;57.06;100746.39;106104;1274;97948;-66
2022/08/12 05:23:23;;;;;;;5.90;2.80;;;;;;;21.76;56.62;100744.07;105910;1274;138459;-66
2022/08/12 05:25:56;;;;;;;8.70;3.10;;;;;;;22.02;56.00;100746.23;106110;1276;111772;-66
2022/08/12 05:28:29;;;;;;;5.30;2.90;;;;;;;22.20;55.16;100744.96;105921;1274;138920;-66
2022/08/12 05:31:02;;;;;;;6.90;3.10;;;;;;;22.35;54.72;100745.66;106020;1276;106996;-66
2022/08/12 05:33:38;;;;;;;4.20;2.50;;;;;;;22.54;54.47;100745.42;105856;1274;138166;-66
2022/08/12 05:36:13;;;;;;;7.80;2.70;;;;;;;22.71;54.09;100746.10;107388;1274;96393;-67
2022/08/12 05:38:59;;;;;;;5.80;3.60;;;;;;;22.83;53.84;100744.69;105972;1276;112130;-65
2022/08/12 05:41:34;;;;;;;8.50;3.00;;;;;;;23.15;53.40;100744.55;107444;1274;137939;-66
2022/08/12 05:44:09;;;;;;;7.70;3.00;;;;;;;24.33;52.92;100739.62;106001;1274;108739;-66
2022/08/12 05:46:41;;;;;;;8.50;2.50;;;;;;;25.92;51.57;100733.94;107424;1275;137854;-66
2022/08/12 05:49:15;;;;;;;7.70;2.70;;;;;;;27.53;49.14;100734.04;106656;1274;97947;-66
2022/08/12 05:51:47;;;;;;;8.10;2.70;;;;;;;28.87;46.69;100730.14;107413;1275;137707;-67
2022/08/12 05:54:19;;;;;;;7.20;2.70;;;;;;;29.93;44.34;100723.69;107449;1275;108827;-68
2022/08/12 05:57:12;;;;;;;7.60;2.70;;;;;;;31.01;42.89;100728.41;107551;1274;108996;-70
2022/08/12 05:59:44;;;;;;;6.80;2.50;;;;;;;31.76;40.98;100727.33;107452;1274;138299;-67
2022/08/12 06:02:18;;;;;;;5.60;2.50;;;;;;;31.67;39.78;100726.73;106445;1274;97803;-67
2022/08/12 06:04:52;;;;;;;12.70;2.60;;;;;;;31.39;39.52;100719.51;105795;1275;138171;-67
2022/08/12 06:07:24;;;;;;;8.00;2.80;;;;;;;32.16;38.51;100722.38;106036;1275;107891;-67
2022/08/12 06:10:18;;;;;;;6.20;2.30;;;;;;;32.81;37.29;100720.52;107441;1274;139614;-67
2022/08/12 06:13:05;;;;;;;10.00;2.50;;;;;;;32.48;36.65;100727.30;106238;1276;97842;-67
2022/08/12 06:15:39;;;;;;;4.50;2.20;;;;;;;32.46;36.68;100720.35;107420;1274;138043;-69
2022/08/12 06:18:14;;;;;;;8.20;2.40;;;;;;;33.38;36.34;100710.39;106686;1274;113524;-66
2022/08/12 06:20:49;;;;;;;6.00;2.40;;;;;;;34.26;35.58;100703.75;106044;1274;108983;-66
2022/08/12 06:23:27;;;;;;;5.30;2.20;;;;;;;33.86;34.61;100705.95;105892;1274;137993;-66
2022/08/12 06:26:00;;;;;;;4.10;1.90;;;;;;;33.13;35.00;100712.23;106038;1275;97937;-66
2022/08/12 06:28:32;;;;;;;3.80;2.00;;;;;;;32.50;34.93;100714.34;105839;1276;137792;-65
2022/08/12 06:31:05;;;;;;;11.50;3.90;;;;;;;31.89;35.53;100716.61;107533;1274;112559;-66
2022/08/12 06:33:57;;;;;;;6.90;2.70;;;;;;;31.21;36.29;100720.44;107382;1274;139634;-66
2022/08/12 06:36:50;;;;;;;6.40;2.30;;;;;;;30.77;37.05;100719.44;107533;1274;108911;-66
2022/08/12 06:39:22;;;;;;;8.20;2.70;;;;;;;30.63;37.71;100717.05;107509;1274;96328;-66
2022/08/12 06:45:05;;;;;;;6.60;2.40;;;;;;;31.52;38.18;100716.36;107561;1274;114082;-67
2022/08/12 06:47:39;;;;;;;6.40;2.10;;;;;;;33.19;37.71;100717.27;107421;1276;138621;-66
2022/08/12 06:50:14;;;;;;;5.70;2.30;;;;;;;34.81;36.08;100714.60;107463;1276;108828;-66
2022/08/12 06:52:47;;;;;;;7.90;2.10;;;;;;;36.17;33.38;100712.86;107402;1274;138965;-67
2022/08/12 06:55:19;;;;;;;5.00;2.10;;;;;;;37.32;32.03;100715.54;105985;1274;97851;-66
2022/08/12 06:57:57;;;;;;;4.70;2.10;;;;;;;38.03;30.97;100710.33;105878;1274;138320;-66
2022/08/12 07:00:43;;;;;;;6.00;2.20;;;;;;;38.87;29.91;100710.73;105998;1275;109331;-67
2022/08/12 07:03:20;;;;;;;7.00;2.10;;;;;;;39.58;29.04;100714.98;107473;1274;108949;-68
2022/08/12 07:05:55;;;;;;;4.50;1.90;;;;;;;40.11;27.75;100717.27;106659;1274;97845;-67
2022/08/12 07:08:29;;;;;;;7.20;1.80;;;;;;;40.45;27.32;100718.30;106036;1274;97845;-66
2022/08/12 07:11:03;;;;;;;11.10;2.30;;;;;;;40.58;26.59;100718.82;105926;1276;137886;-68
2022/08/12 07:13:37;;;;;;;3.50;2.00;;;;;;;40.78;26.32;100717.27;106095;1273;109055;-67
2022/08/12 07:16:50;;;;;;;3.90;1.80;;;;;;;40.95;26.00;100717.07;105760;1276;137832;-65
2022/08/12 07:19:23;;;;;;;3.10;1.70;;;;;;;41.09;26.01;100719.60;107403;1274;95982;-68
2022/08/12 07:22:12;;;;;;;4.80;2.30;;;;;;;41.33;26.11;100719.77;107464;1273;137983;-68
2022/08/12 07:25:29;;;;;;;10.00;3.00;;;;;;;41.75;25.38;100716.81;106004;1274;112503;-67
2022/08/12 07:27:41;;;;;;;3.80;2.40;;;;;;;42.00;24.83;100711.39;107374;1275;138180;-66
2022/08/12 07:30:14;;;;;;;3.50;1.70;;;;;;;42.19;24.76;100712.45;106508;1275;108992;-68
2022/08/12 07:32:48;;;;;;;2.30;1.60;;;;;;;42.38;24.75;100709.11;105986;1276;97940;-66
2022/08/12 07:35:21;;;;;;;3.80;2.10;;;;;;;42.49;24.36;100709.09;105785;1276;138348;-67
2022/08/12 07:37:54;;;;;;;3.60;1.70;;;;;;;42.60;24.12;100709.02;105952;1276;112654;-67
2022/08/12 07:40:28;;;;;;;4.60;1.60;;;;;;;42.58;23.76;100707.77;105824;1276;138620;-67
2022/08/12 07:43:01;;;;;;;4.60;1.60;;;;;;;42.56;23.49;100713.34;107392;1275;110195;-67
2022/08/12 07:45:33;;;;;;;6.00;1.80;;;;;;;42.51;23.11;100720.83;106117;1276;138134;-68
2022/08/12 07:48:06;;;;;;;5.90;2.00;;;;;;;42.52;22.69;100717.48;106016;1276;97920;-71
2022/08/12 07:50:38;;;;;;;3.00;1.70;;;;;;;42.55;22.74;100715.11;107416;1275;112107;-67
2022/08/12 07:53:11;;;;;;;2.50;1.80;;;;;;;42.41;22.74;100713.06;107368;1275;139719;-67
2022/08/12 07:55:43;;;;;;;2.20;1.60;;;;;;;42.30;22.81;100717.46;107407;1276;108694;-67
2022/08/12 07:58:15;;;;;;;3.80;1.90;;;;;;;42.15;22.94;100718.88;107312;1275;137790;-67
2022/08/12 08:00:48;;;;;;;2.70;1.60;;;;;;;41.87;22.48;100724.18;106242;1275;97856;-69
2022/08/12 08:03:21;;;;;;;2.90;1.80;;;;;;;41.10;22.49;100724.96;107524;1276;112543;-68
2022/08/12 08:05:54;;;;;;;1.70;1.60;;;;;;;40.46;22.60;100721.45;107179;1273;109008;-70
2022/08/12 08:08:28;;;;;;;1.70;1.60;;;;;;;39.82;22.45;100718.73;105947;1276;108932;-69
2022/08/12 08:14:07;;;;;;;9.70;6.70;;;;;;;37.74;24.18;100713.88;105649;1281;97748;-68
2022/08/12 08:16:41;;;;;;;6.90;1.90;;;;;;;37.10;24.83;100716.36;105650;1281;138855;-68
2022/08/12 08:19:18;;;;;;;2.40;1.90;;;;;;;36.65;25.72;100712.04;105701;1281;108936;-67
2022/08/12 08:21:50;;;;;;;3.20;1.70;;;;;;;36.41;26.69;100711.11;106840;1281;139354;-68
2022/08/12 08:24:23;;;;;;;4.00;1.80;;;;;;;35.96;26.91;100714.13;105888;1282;97876;-67
2022/08/12 08:26:57;;;;;;;6.00;2.30;;;;;;;35.26;27.17;100718.09;105500;1279;98000;-67
2022/08/12 08:29:34;;;;;;;5.90;2.50;;;;;;;34.64;27.90;100725.06;105588;1281;137739;-69
2022/08/12 08:32:09;;;;;;;3.50;2.20;;;;;;;34.18;28.61;100724.91;105690;1281;109239;-67
2022/08/12 08:34:45;;;;;;;6.10;2.30;;;;;;;34.27;29.79;100721.84;105568;1281;138298;-66
2022/08/12 08:37:25;;;;;;;4.70;2.60;;;;;;;34.16;29.85;100722.63;106850;1279;97901;-70
2022/08/12 08:42:51;;;;;;;3.90;2.60;;;;;;;33.75;30.33;100724.94;107077;1279;112923;-67
2022/08/12 08:45:23;;;;;;;3.30;2.00;;;;;;;33.59;29.81;100722.70;107176;1276;109496;-69
2022/08/12 08:47:55;;;;;;;2.40;2.20;;;;;;;33.15;29.74;100731.06;107407;1275;107831;-74
2022/08/12 08:50:32;;;;;;;3.90;2.30;;;;;;;32.66;30.15;100725.32;107503;1274;95991;-70
2022/08/12 08:53:07;;;;;;;6.80;2.10;;;;;;;32.24;30.87;100730.83;107441;1274;137970;-72
2022/08/12 08:55:41;;;;;;;2.80;2.20;;;;;;;32.04;31.41;100735.18;106071;1274;112815;-70
2022/08/12 08:58:33;;;;;;;7.20;2.20;;;;;;;31.85;31.84;100740.39;106640;1274;138090;-70
2022/08/12 09:01:06;;;;;;;5.50;2.40;;;;;;;31.58;32.33;100731.96;106819;1275;108878;-69
2022/08/12 09:03:38;;;;;;;4.30;2.50;;;;;;;31.39;32.81;100730.02;105772;1276;140099;-68
2022/08/12 09:06:30;;;;;;;3.00;2.40;;;;;;;31.32;33.41;100729.64;107521;1275;96298;-69
2022/08/12 09:09:10;;;;;;;5.30;2.50;;;;;;;31.13;33.86;100731.00;106486;1274;112497;-70
2022/08/12 09:14:54;;;;;;;4.60;2.00;;;;;;;30.84;34.41;100728.80;106036;1275;109800;-73
2022/08/12 09:17:29;;;;;;;2.70;2.00;;;;;;;31.42;35.11;100722.43;107053;1273;137943;-71
2022/08/12 09:20:21;;;;;;;4.20;2.30;;;;;;;31.51;34.30;100714.72;107473;1274;96097;-72
2022/08/12 09:23:14;;;;;;;4.00;2.20;;;;;;;31.72;33.98;100721.02;107389;1275;137678;-73
2022/08/12 09:26:08;;;;;;;4.60;2.20;;;;;;;31.56;33.73;100727.08;106138;1274;109087;-71
2022/08/12 09:28:41;;;;;;;2.80;2.20;;;;;;;31.37;33.63;100733.47;107470;1274;137880;-72
2022/08/12 09:31:16;;;;;;;7.60;2.80;;;;;;;31.31;33.86;100730.73;107544;1274;96159;-71
2022/08/12 09:34:09;;;;;;;4.50;2.60;;;;;;;31.18;34.26;100735.84;107460;1274;138219;-71
2022/08/12 09:37:02;;;;;;;3.20;2.30;;;;;;;30.96;34.29;100734.17;107525;1274;112458;-73
2022/08/12 09:39:52;;;;;;;5.40;2.40;;;;;;;30.64;34.85;100735.21;107399;1274;138539;-73
2022/08/12 09:45:49;;;;;;;8.10;2.50;;;;;;;30.04;35.89;100728.98;105914;1274;138898;-74
2022/08/12 09:48:41;;;;;;;3.30;2.50;;;;;;;29.71;36.21;100735.82;106093;1274;97947;-72
2022/08/12 09:51:32;;;;;;;6.30;2.40;;;;;;;29.44;36.81;100734.77;105975;1274;139707;-70
2022/08/12 09:54:10;;;;;;;7.00;3.00;;;;;;;29.19;37.35;100738.92;107337;1274;108298;-71
2022/08/12 09:57:08;;;;;;;7.10;2.80;;;;;;;28.93;37.96;100736.25;107288;1276;107812;-73
2022/08/12 10:00:00;;;;;;;5.90;2.80;;;;;;;28.60;38.26;100733.46;106934;1274;96739;-73
2022/08/12 10:03:03;;;;;;;7.30;3.30;;;;;;;28.33;38.97;100732.22;107357;1276;96077;-73
2022/08/12 10:05:42;;;;;;;5.80;2.90;;;;;;;28.05;39.23;100730.83;107018;1275;137985;-72
2022/08/12 10:08:35;;;;;;;5.10;3.40;;;;;;;27.77;39.97;100728.10;106038;1275;108884;-73
2022/08/12 10:14:19;;;;;;;5.70;3.30;;;;;;;27.34;41.26;100724.85;105945;1274;97837;-74
2022/08/12 10:17:05;;;;;;;4.20;3.20;;;;;;;27.20;41.84;100723.67;105914;1276;137941;-73
2022/08/12 10:19:40;;;;;;;7.30;2.90;;;;;;;27.07;42.42;100720.43;106039;1276;112742;-79
2022/08/12 10:22:23;;;;;;;5.40;3.30;;;;;;;26.96;42.80;100720.52;107389;1274;138366;-71
2022/08/12 10:31:34;;;;;;;5.80;3.70;;;;;;;27.67;43.95;100717.07;107510;1275;96048;-72
2022/08/12 10:34:27;;;;;;;4.90;2.90;;;;;;;28.14;43.33;100718.16;107275;1275;139876;-70
2022/08/12 10:37:01;;;;;;;4.70;3.30;;;;;;;28.53;42.71;100712.16;106375;1276;106757;-70
2022/08/12 10:39:54;;;;;;;3.80;2.90;;;;;;;29.01;42.32;100702.23;105895;1276;138474;-68
2022/08/12 10:45:31;;;;;;;6.90;3.30;;;;;;;29.91;41.49;100700.41;107325;1276;138234;-71
2022/08/12 10:48:09;;;;;;;5.00;3.50;;;;;;;29.95;40.92;100699.56;107440;1275;113309;-69
2022/08/12 10:50:58;;;;;;;8.40;3.20;;;;;;;30.07;40.63;100696.91;105990;1276;107814;-69
2022/08/12 10:53:35;;;;;;;3.90;3.20;;;;;;;30.19;40.24;100692.45;105879;1276;138919;-69
2022/08/12 10:56:18;;;;;;;12.80;3.90;;;;;;;30.25;40.24;100690.52;106165;1276;97931;-69
2022/08/12 10:58:54;;;;;;;14.70;3.60;;;;;;;30.16;39.78;100696.88;107024;1276;138590;-70
2022/08/12 11:01:27;;;;;;;6.40;3.70;;;;;;;29.95;39.99;100693.46;107499;1275;112594;-70
2022/08/12 11:04:19;;;;;;;6.70;3.90;;;;;;;29.72;40.45;100694.80;106177;1275;1446102;-70
2022/08/12 11:07:12;;;;;;;9.70;3.90;;;;;;;29.55;40.85;100690.92;106300;1276;108855;-69
2022/08/12 11:10:13;;;;;;;9.10;3.90;;;;;;;29.37;40.80;100692.84;105683;1276;138367;-66
2022/08/12 11:12:49;;;;;;;7.40;4.00;;;;;;;28.99;41.22;100694.40;107362;1275;96177;-67
2022/08/12 11:15:32;;;;;;;4.60;3.80;;;;;;;28.63;41.66;100700.02;107202;1276;139472;-66
2022/08/12 11:18:25;;;;;;;8.50;3.80;;;;;;;28.33;42.28;100698.79;107463;1275;109076;-67
2022/08/12 11:20:59;;;;;;;4.70;3.90;;;;;;;28.11;42.88;100699.81;107485;1275;108945;-67
2022/08/12 11:23:36;;;;;;;7.70;4.60;;;;;;;27.96;43.05;100694.05;107344;1275;139537;-67
2022/08/12 11:26:10;;;;;;;8.60;4.90;;;;;;;27.84;43.53;100690.20;107424;1275;96484;-66
2022/08/12 11:28:43;;;;;;;7.00;4.90;;;;;;;27.73;43.69;100689.49;107409;1274;138066;-67
2022/08/12 11:31:30;;;;;;;6.70;4.20;;;;;;;27.58;44.19;100683.02;106092;1275;109364;-65
2022/08/12 11:34:23;;;;;;;6.90;4.30;;;;;;;27.47;44.74;100681.84;105947;1275;138516;-65
2022/08/12 11:37:15;;;;;;;7.80;4.40;;;;;;;27.36;45.24;100686.65;106060;1276;97865;-67
2022/08/12 11:39:57;;;;;;;4.30;3.90;;;;;;;27.28;45.35;100683.46;105852;1276;138052;-68
2022/08/12 11:42:38;;;;;;;6.70;4.60;;;;;;;27.21;45.51;100685.36;105917;1276;112437;-66
2022/08/12 11:45:18;;;;;;;9.60;4.40;;;;;;;27.17;45.81;100680.82;105890;1276;109609;-66
2022/08/12 11:47:53;;;;;;;7.60;4.10;;;;;;;27.14;45.89;100677.31;105869;1274;137754;-67
2022/08/12 11:50:27;;;;;;;6.60;4.70;;;;;;;27.15;46.21;100673.98;107513;1274;96924;-68
2022/08/12 11:53:03;;;;;;;6.30;5.10;;;;;;;27.17;46.25;100676.11;107422;1274;138542;-69
2022/08/12 11:55:55;;;;;;;5.60;4.80;;;;;;;27.08;46.09;100677.52;107459;1274;112933;-68
2022/08/12 11:58:28;;;;;;;8.60;5.00;;;;;;;26.99;46.26;100672.27;107042;1274;137830;-66
2022/08/12 12:01:21;;;;;;;10.40;5.00;;;;;;;26.88;46.43;100673.13;105965;1276;108258;-69
2022/08/12 12:04:13;;;;;;;6.50;5.00;;;;;;;26.74;46.54;100675.46;105938;1275;138489;-67
2022/08/12 12:07:00;;;;;;;8.90;5.30;;;;;;;26.69;47.10;100675.58;105880;1276;97828;-68
2022/08/12 12:09:42;;;;;;;6.30;5.30;;;;;;;26.70;47.16;100675.86;105729;1276;138264;-69
2022/08/12 12:12:25;;;;;;;8.40;5.50;;;;;;;26.71;46.96;100668.98;106084;1275;109200;-66
2022/08/12 12:14:58;;;;;;;6.60;5.00;;;;;;;26.72;47.33;100665.15;107480;1274;108909;-70
2022/08/12 12:17:39;;;;;;;6.40;5.00;;;;;;;26.70;47.44;100666.83;107218;1275;138212;-68
2022/08/12 12:20:13;;;;;;;8.00;5.10;;;;;;;26.68;47.54;100667.86;107418;1276;96286;-67
2022/08/12 12:22:45;;;;;;;8.50;4.60;;;;;;;26.66;47.65;100663.92;107323;1276;138343;-67
2022/08/12 12:25:17;;;;;;;5.50;4.90;;;;;;;26.67;47.72;100660.80;107525;1275;109063;-68
2022/08/12 12:27:55;;;;;;;8.50;5.60;;;;;;;26.68;47.80;100660.17;107268;1276;138223;-67
2022/08/12 12:30:37;;;;;;;7.40;5.10;;;;;;;26.69;47.83;100656.57;107458;1276;96035;-68
2022/08/12 12:33:11;;;;;;;6.30;5.00;;;;;;;26.68;47.94;100654.66;107505;1275;96118;-67
2022/08/12 12:35:49;;;;;;;10.80;5.40;;;;;;;26.66;47.80;100650.94;106394;1276;138507;-66
2022/08/12 12:38:41;;;;;;;5.90;4.90;;;;;;;26.65;48.03;100649.09;107516;1275;108833;-68
2022/08/12 12:41:16;;;;;;;7.60;5.70;;;;;;;26.64;47.88;100648.84;107116;1275;138172;-68
2022/08/12 12:43:48;;;;;;;6.40;4.90;;;;;;;26.66;48.09;100647.36;106018;1276;98009;-67
2022/08/12 12:46:35;;;;;;;6.80;5.80;;;;;;;26.71;47.92;100643.69;105967;1275;137879;-68
2022/08/12 12:49:07;;;;;;;8.20;5.20;;;;;;;26.74;47.86;100645.52;106112;1276;112257;-67
2022/08/12 12:51:46;;;;;;;9.40;5.30;;;;;;;26.82;47.87;100643.37;105858;1276;138023;-69
2022/08/12 12:54:51;;;;;;;10.90;5.30;;;;;;;26.97;47.76;100637.70;105991;1276;109068;-68
2022/08/12 12:57:24;;;;;;;8.20;5.60;;;;;;;27.03;47.63;100635.81;107496;1274;95790;-69
2022/08/12 13:00:19;;;;;;;7.50;5.30;;;;;;;27.03;47.56;100635.84;107575;1274;96090;-69
2022/08/12 13:02:54;;;;;;;11.60;5.20;;;;;;;27.03;47.62;100626.44;107565;1274;112275;-70
2022/08/12 13:05:30;;;;;;;9.40;5.10;;;;;;;27.09;47.74;100624.35;107102;1274;138771;-69
2022/08/12 13:08:23;;;;;;;6.50;5.60;;;;;;;27.24;47.74;100624.02;106131;1275;108925;-65
2022/08/12 13:11:07;;;;;;;8.70;5.80;;;;;;;27.26;47.70;100620.85;107383;1274;138040;-65
2022/08/12 13:13:41;;;;;;;10.30;5.20;;;;;;;27.33;47.52;100621.55;106780;1275;97846;-65
2022/08/12 13:16:33;;;;;;;6.40;5.40;;;;;;;27.49;47.36;100621.05;105872;1276;137994;-64
2022/08/12 13:19:15;;;;;;;9.30;5.10;;;;;;;27.59;47.44;100620.77;106030;1276;108869;-65
2022/08/12 13:25:00;;;;;;;7.60;5.40;;;;;;;27.70;47.69;100618.67;106688;1281;96752;-66
2022/08/12 13:27:40;;;;;;;9.80;5.10;;;;;;;27.61;48.12;100620.03;106663;1284;138084;-68
2022/08/12 13:30:19;;;;;;;10.70;6.80;;;;;;;27.49;48.57;100623.92;106917;1281;112527;-68
2022/08/12 13:32:57;;;;;;;10.00;5.80;;;;;;;27.35;50.57;100621.92;107016;1279;109545;-67
2022/08/12 13:35:32;;;;;;;9.70;6.60;;;;;;;27.14;51.41;100614.47;106808;1279;138125;-70
2022/08/12 13:38:37;;;;;;;9.00;6.00;;;;;;;26.87;51.65;100613.77;106977;1281;95976;-68
2022/08/12 13:41:31;;;;;;;10.00;8.10;;;;;;;26.61;52.03;100609.64;106933;1279;138275;-67
2022/08/12 13:44:05;;;;;;;11.90;6.70;;;;;;;26.47;53.73;100613.33;106938;1280;112474;-65
2022/08/12 13:46:42;;;;;;;15.60;8.00;;;;;;;26.38;53.89;100614.81;106890;1279;141578;-66
2022/08/12 13:49:14;;;;;;;12.90;7.90;;;;;;;26.32;54.57;100618.73;105972;1279;107673;-65
2022/08/12 13:52:07;;;;;;;9.60;6.90;;;;;;;26.25;55.33;100617.84;105533;1281;139099;-69
2022/08/12 13:54:39;;;;;;;9.40;6.70;;;;;;;26.15;54.27;100613.77;106927;1279;96240;-69